createdAt,value
2019-06-08T00:01:12.533Z,19.81
2019-06-08T00:03:41.864Z,19.77
2019-06-08T00:06:12.502Z,19.76
2019-06-08T00:08:42.131Z,19.75
2019-06-08T00:11:12.694Z,19.74
2019-06-08T00:13:42.131Z,19.69
2019-06-08T00:16:11.526Z,19.63
2019-06-08T00:18:40.935Z,19.50
2019-06-08T00:21:10.307Z,19.46
2019-06-08T00:23:39.688Z,19.41
2019-06-08T00:26:09.032Z,19.31
2019-06-08T00:28:38.432Z,19.26
2019-06-08T00:31:07.812Z,19.18
2019-06-08T00:33:37.259Z,19.12
2019-06-08T00:36:06.674Z,19.10
2019-06-08T00:38:36.084Z,19.05
2019-06-08T00:41:05.452Z,19.06
2019-06-08T00:43:35.056Z,19.05
2019-06-08T00:46:04.452Z,19.02
2019-06-08T00:48:33.795Z,19.02
2019-06-08T00:51:03.161Z,18.93
2019-06-08T00:53:32.525Z,18.99
2019-06-08T00:56:01.898Z,18.89
2019-06-08T00:58:31.261Z,18.81
2019-06-08T01:01:00.609Z,18.72
2019-06-08T01:03:30.079Z,18.59
2019-06-08T01:05:59.432Z,18.55
2019-06-08T01:08:29.330Z,18.46
2019-06-08T01:10:58.847Z,18.31
2019-06-08T01:13:28.974Z,18.29
2019-06-08T01:15:58.403Z,18.22
2019-06-08T01:18:27.748Z,18.10
2019-06-08T01:20:57.125Z,18.03
2019-06-08T01:23:27.876Z,18.04
2019-06-08T01:25:57.256Z,18.02
2019-06-08T01:28:26.632Z,17.85
2019-06-08T01:30:55.981Z,17.89
2019-06-08T01:33:26.608Z,17.85
2019-06-08T01:35:56.131Z,17.89
2019-06-08T01:38:25.503Z,17.87
2019-06-08T01:40:54.909Z,17.85
2019-06-08T01:43:25.712Z,17.81
2019-06-08T01:45:55.261Z,17.86
2019-06-08T01:48:24.632Z,17.85
2019-06-08T01:50:54.125Z,17.75
2019-06-08T01:53:24.602Z,17.67
2019-06-08T01:55:54.028Z,17.70
2019-06-08T01:58:23.486Z,17.61
2019-06-08T02:00:52.930Z,17.65
2019-06-08T02:03:23.776Z,17.63
2019-06-08T02:05:53.224Z,17.60
2019-06-08T02:08:22.637Z,17.57
2019-06-08T02:10:52.048Z,17.63
2019-06-08T02:13:21.448Z,17.57
2019-06-08T02:15:50.872Z,17.61
2019-06-08T02:18:35.367Z,17.54
2019-06-08T02:20:51.363Z,17.60
2019-06-08T02:23:20.720Z,17.56
2019-06-08T02:25:50.117Z,17.49
2019-06-08T02:28:19.525Z,17.45
2019-06-08T02:30:48.889Z,17.34
2019-06-08T02:33:18.279Z,17.26
2019-06-08T02:35:47.755Z,17.18
2019-06-08T02:38:17.105Z,17.20
2019-06-08T02:40:46.510Z,17.13
2019-06-08T02:43:15.894Z,17.10
2019-06-08T02:45:45.288Z,17.04
2019-06-08T02:48:14.660Z,17.06
2019-06-08T02:50:55.391Z,17.09
2019-06-08T02:53:25.756Z,17.08
2019-06-08T02:55:55.850Z,17.08
2019-06-08T02:58:25.725Z,17.05
2019-06-08T03:00:56.247Z,17.07
2019-06-08T03:03:27.327Z,17.10
2019-06-08T03:05:59.667Z,17.14
2019-06-08T03:08:32.291Z,17.19
2019-06-08T03:11:03.909Z,17.15
2019-06-08T03:13:35.654Z,17.24
2019-06-08T03:16:05.491Z,17.29
2019-06-08T03:18:35.875Z,17.29
2019-06-08T03:21:05.803Z,17.29
2019-06-08T03:23:36.281Z,17.26
2019-06-08T03:26:05.869Z,17.34
2019-06-08T03:28:37.145Z,17.30
2019-06-08T03:31:06.390Z,17.40
2019-06-08T03:33:40.051Z,17.48
2019-06-08T03:36:06.815Z,17.49
2019-06-08T03:38:37.505Z,17.54
2019-06-08T03:41:07.131Z,17.53
2019-06-08T03:43:37.599Z,17.56
2019-06-08T03:46:07.635Z,17.64
2019-06-08T03:48:37.855Z,17.67
2019-06-08T03:51:08.109Z,17.75
2019-06-08T03:53:38.370Z,17.76
2019-06-08T03:56:08.562Z,17.79
2019-06-08T03:58:38.523Z,17.79
2019-06-08T04:01:09.101Z,17.82
2019-06-08T04:03:39.948Z,17.87
2019-06-08T04:06:09.656Z,17.87
2019-06-08T04:08:40.902Z,17.96
2019-06-08T04:11:10.253Z,17.96
2019-06-08T04:13:39.907Z,18.02
2019-06-08T04:16:09.544Z,18.07
2019-06-08T04:18:40.271Z,18.16
2019-06-08T04:21:09.967Z,18.14
2019-06-08T04:23:40.571Z,18.17
2019-06-08T04:26:10.529Z,18.23
2019-06-08T04:28:40.553Z,18.28
2019-06-08T04:31:10.102Z,18.34
2019-06-08T04:33:40.238Z,18.42
2019-06-08T04:36:10.524Z,18.45
2019-06-08T04:38:41.317Z,18.48
2019-06-08T04:41:11.175Z,18.63
2019-06-08T04:43:42.863Z,18.66
2019-06-08T04:46:13.006Z,18.77
2019-06-08T04:48:43.015Z,18.81
2019-06-08T04:51:13.481Z,18.91
2019-06-08T04:53:43.661Z,18.86
2019-06-08T04:56:14.005Z,18.94
2019-06-08T04:58:46.006Z,19.03
2019-06-08T05:01:14.564Z,19.00
2019-06-08T05:03:45.579Z,19.12
2019-06-08T05:06:15.069Z,19.11
2019-06-08T05:08:45.231Z,19.24
2019-06-08T05:11:14.902Z,19.32
2019-06-08T05:13:45.368Z,19.42
2019-06-08T05:16:14.791Z,19.49
2019-06-08T05:18:45.287Z,19.55
2019-06-08T05:21:14.843Z,19.61
2019-06-08T05:23:45.548Z,19.70
2019-06-08T05:26:15.284Z,19.84
2019-06-08T05:28:45.261Z,19.88
2019-06-08T05:31:14.720Z,19.93
2019-06-08T05:33:45.467Z,19.94
2019-06-08T05:36:14.989Z,19.88
2019-06-08T05:38:45.617Z,19.98
2019-06-08T05:41:15.151Z,20.06
2019-06-08T05:43:45.619Z,20.17
2019-06-08T05:46:15.085Z,20.19
2019-06-08T05:48:45.807Z,20.21
2019-06-08T05:51:15.362Z,20.25
2019-06-08T05:53:45.760Z,20.31
2019-06-08T05:56:17.454Z,20.40
2019-06-08T05:58:48.048Z,20.47
2019-06-08T06:01:17.461Z,20.60
2019-06-08T06:03:46.873Z,20.70
2019-06-08T06:06:16.239Z,20.69
2019-06-08T06:08:46.608Z,20.74
2019-06-08T06:11:16.034Z,20.84
2019-06-08T06:13:45.405Z,20.98
2019-06-08T06:16:14.827Z,21.06
2019-06-08T06:18:44.987Z,21.18
2019-06-08T06:21:14.779Z,21.16
2019-06-08T06:23:45.220Z,21.04
2019-06-08T06:26:14.824Z,21.15
2019-06-08T06:28:45.629Z,21.33
2019-06-08T06:31:14.984Z,21.47
2019-06-08T06:33:45.903Z,21.58
2019-06-08T06:36:15.395Z,21.58
2019-06-08T06:38:45.901Z,21.66
2019-06-08T06:41:16.146Z,21.67
2019-06-08T06:43:45.844Z,21.88
2019-06-08T06:46:15.826Z,22.02
2019-06-08T06:48:46.125Z,22.08
2019-06-08T06:51:25.597Z,22.04
2019-06-08T06:56:15.913Z,22.27
2019-06-08T06:58:45.323Z,22.38
2019-06-08T07:01:14.759Z,22.44
2019-06-08T07:03:44.280Z,22.44
2019-06-08T07:06:15.420Z,22.57
2019-06-08T07:08:46.185Z,22.62
2019-06-08T07:11:15.559Z,22.56
2019-06-08T07:13:44.957Z,22.71
2019-06-08T07:16:18.314Z,22.78
2019-06-08T07:18:46.176Z,22.85
2019-06-08T07:21:15.658Z,22.97
2019-06-08T07:23:46.258Z,23.06
2019-06-08T07:26:15.710Z,23.20
2019-06-08T07:28:46.218Z,23.36
2019-06-08T07:31:16.185Z,23.47
2019-06-08T07:33:46.779Z,23.58
2019-06-08T07:36:16.795Z,23.67
2019-06-08T07:38:47.023Z,23.83
2019-06-08T07:41:17.674Z,23.87
2019-06-08T07:43:47.987Z,23.97
2019-06-08T07:46:18.095Z,24.06
2019-06-08T07:48:48.108Z,24.14
2019-06-08T07:51:17.674Z,24.23
2019-06-08T07:53:48.089Z,24.29
2019-06-08T07:56:17.903Z,24.40
2019-06-08T07:58:49.542Z,24.49
2019-06-08T08:01:18.396Z,24.51
2019-06-08T08:03:47.995Z,24.66
2019-06-08T08:06:17.327Z,24.76
2019-06-08T08:08:46.710Z,24.81
2019-06-08T08:11:16.077Z,24.95
2019-06-08T08:13:45.468Z,25.08
2019-06-08T08:16:14.825Z,25.29
2019-06-08T08:18:44.199Z,25.44
2019-06-08T08:21:22.134Z,25.54
2019-06-08T08:23:44.755Z,25.58
2019-06-08T08:26:14.165Z,25.67
2019-06-08T08:28:43.577Z,25.80
2019-06-08T08:31:15.251Z,25.95
2019-06-08T08:33:44.116Z,25.95
2019-06-08T08:36:13.480Z,26.14
2019-06-08T08:38:42.862Z,26.26
2019-06-08T08:41:12.236Z,26.42
2019-06-08T08:43:41.585Z,26.46
2019-06-08T08:46:11.028Z,26.66
2019-06-08T08:48:40.464Z,26.85
2019-06-08T08:51:09.809Z,27.01
2019-06-08T08:53:39.285Z,27.19
2019-06-08T08:56:08.660Z,27.27
2019-06-08T08:58:38.188Z,27.39
2019-06-08T09:01:08.230Z,27.45
2019-06-08T09:03:39.610Z,27.56
2019-06-08T09:06:08.887Z,27.67
2019-06-08T09:08:38.263Z,27.62
2019-06-08T09:11:08.306Z,27.50
2019-06-08T09:13:37.866Z,27.42
2019-06-08T09:16:08.133Z,27.40
2019-06-08T09:18:37.765Z,27.56
2019-06-08T09:21:08.429Z,27.53
2019-06-08T09:23:38.066Z,27.62
2019-06-08T09:26:12.434Z,27.74
2019-06-08T09:28:38.990Z,27.62
2019-06-08T09:31:10.386Z,27.73
2019-06-08T09:33:39.649Z,27.79
2019-06-08T09:36:09.072Z,28.02
2019-06-08T09:38:39.072Z,28.19
2019-06-08T09:41:09.098Z,28.23
2019-06-08T09:43:38.958Z,28.23
2019-06-08T09:46:09.413Z,28.35
2019-06-08T09:48:39.105Z,28.53
2019-06-08T09:51:09.268Z,28.31
2019-06-08T09:53:41.638Z,28.22
2019-06-08T09:56:10.482Z,28.38
2019-06-08T09:58:40.163Z,28.44
2019-06-08T10:01:12.346Z,28.47
2019-06-08T10:03:40.647Z,28.49
2019-06-08T10:06:12.297Z,28.53
2019-06-08T10:08:41.148Z,28.73
2019-06-08T10:11:10.534Z,28.77
2019-06-08T10:13:43.280Z,28.48
2019-06-08T10:16:11.120Z,28.55
2019-06-08T10:18:40.581Z,28.40
2019-06-08T10:21:10.243Z,28.45
2019-06-08T10:23:41.748Z,28.55
2019-06-08T10:26:11.557Z,28.55
2019-06-08T10:28:40.916Z,28.62
2019-06-08T10:31:10.411Z,28.73
2019-06-08T10:33:40.536Z,28.75
2019-06-08T10:36:12.904Z,28.93
2019-06-08T10:38:41.614Z,28.93
2019-06-08T10:41:17.772Z,28.96
2019-06-08T10:43:42.263Z,29.12
2019-06-08T10:46:16.555Z,29.13
2019-06-08T10:48:42.755Z,29.20
2019-06-08T10:51:13.053Z,29.31
2019-06-08T10:53:49.031Z,29.53
2019-06-08T10:56:13.889Z,29.70
2019-06-08T10:58:43.399Z,29.72
2019-06-08T11:01:13.467Z,29.78
2019-06-08T11:03:43.190Z,29.73
2019-06-08T11:06:13.420Z,29.62
2019-06-08T11:08:43.158Z,29.58
2019-06-08T11:11:19.446Z,30.13
2019-06-08T11:13:50.160Z,30.51
2019-06-08T11:16:18.365Z,30.84
2019-06-08T11:18:48.826Z,30.80
2019-06-08T11:21:19.106Z,31.12
2019-06-08T11:24:04.578Z,31.51
2019-06-08T11:26:24.274Z,31.93
2019-06-08T11:28:51.388Z,32.59
2019-06-08T11:31:20.816Z,32.11
2019-06-08T11:33:50.177Z,31.34
2019-06-08T11:36:19.608Z,31.37
2019-06-08T11:38:49.044Z,32.01
2019-06-08T11:41:22.594Z,32.03
2019-06-08T11:43:49.590Z,31.88
2019-06-08T11:46:21.779Z,32.12
2019-06-08T11:48:50.153Z,31.69
2019-06-08T11:51:19.535Z,31.70
2019-06-08T11:53:51.980Z,31.53
2019-06-08T11:56:20.109Z,31.85
2019-06-08T11:58:49.679Z,32.11
2019-06-08T12:01:19.111Z,32.67
2019-06-08T12:03:48.503Z,32.86
2019-06-08T12:06:18.597Z,33.10
2019-06-08T12:08:48.119Z,32.62
2019-06-08T12:11:19.744Z,32.53
2019-06-08T12:13:48.634Z,32.46
2019-06-08T12:16:21.925Z,32.44
2019-06-08T12:18:49.476Z,32.63
2019-06-08T12:21:18.959Z,33.39
2019-06-08T12:23:48.379Z,33.43
2019-06-08T12:26:17.770Z,33.01
2019-06-08T12:28:48.642Z,32.77
2019-06-08T12:31:22.255Z,33.08
2019-06-08T12:33:49.370Z,33.11
2019-06-08T12:36:20.693Z,32.95
2019-06-08T12:38:49.923Z,33.41
2019-06-08T12:41:19.477Z,33.64
2019-06-08T12:43:48.911Z,33.32
2019-06-08T12:46:20.885Z,32.92
2019-06-08T12:48:49.397Z,32.83
2019-06-08T12:51:19.952Z,32.55
2019-06-08T12:53:49.877Z,32.76
2019-06-08T12:56:23.819Z,32.78
2019-06-08T12:58:50.337Z,32.76
2019-06-08T13:01:19.731Z,32.94
2019-06-08T13:03:49.096Z,32.80
2019-06-08T13:06:19.944Z,32.91
2019-06-08T13:08:49.524Z,32.97
2019-06-08T13:11:21.114Z,32.61
2019-06-08T13:13:50.039Z,33.28
2019-06-08T13:16:23.639Z,33.21
2019-06-08T13:18:50.589Z,33.40
2019-06-08T13:21:33.281Z,32.88
2019-06-08T13:23:51.089Z,32.74
2019-06-08T13:26:27.446Z,33.02
2019-06-08T13:28:51.557Z,33.21
2019-06-08T13:31:24.201Z,33.91
2019-06-08T13:33:52.062Z,34.28
2019-06-08T13:36:26.043Z,34.51
2019-06-08T13:38:52.579Z,34.73
2019-06-08T13:41:25.952Z,34.21
2019-06-08T13:43:53.319Z,33.84
2019-06-08T13:46:23.722Z,33.08
2019-06-08T13:48:53.223Z,32.76
2019-06-08T13:51:24.110Z,32.68
2019-06-08T13:53:53.667Z,33.15
2019-06-08T13:56:24.061Z,33.67
2019-06-08T13:58:53.515Z,33.34
2019-06-08T14:01:23.782Z,33.01
2019-06-08T14:03:53.732Z,33.06
2019-06-08T14:06:23.751Z,33.08
2019-06-08T14:08:54.405Z,33.44
2019-06-08T14:11:25.044Z,33.54
2019-06-08T14:13:54.921Z,32.82
2019-06-08T14:16:25.347Z,32.76
2019-06-08T14:18:55.481Z,32.89
2019-06-08T14:21:36.707Z,33.60
2019-06-08T14:23:55.970Z,33.69
2019-06-08T14:26:25.967Z,33.40
2019-06-08T14:28:55.407Z,33.06
2019-06-08T14:31:25.592Z,32.36
2019-06-08T14:33:56.030Z,32.28
2019-06-08T14:36:26.672Z,31.87
2019-06-08T14:39:02.048Z,31.88
2019-06-08T14:41:31.172Z,31.63
2019-06-08T14:43:58.737Z,32.40
2019-06-08T14:46:28.749Z,32.69
2019-06-08T14:48:58.737Z,32.45
2019-06-08T14:51:47.791Z,32.11
2019-06-08T14:54:20.860Z,31.90
2019-06-08T14:56:48.823Z,31.89
2019-06-08T14:59:20.145Z,31.59
2019-06-08T15:01:49.513Z,31.79
2019-06-08T15:04:23.175Z,31.96
2019-06-08T15:06:50.043Z,31.44
2019-06-08T15:09:19.525Z,31.32
2019-06-08T15:11:49.000Z,31.21
2019-06-08T15:14:22.153Z,31.65
2019-06-08T15:16:51.607Z,32.06
2019-06-08T15:19:22.119Z,31.82
2019-06-08T15:21:51.614Z,31.60
2019-06-08T15:24:21.027Z,31.27
2019-06-08T15:26:50.381Z,31.00
2019-06-08T15:29:20.802Z,31.16
2019-06-08T15:31:50.286Z,30.77
2019-06-08T15:34:21.135Z,30.76
2019-06-08T15:36:50.671Z,30.88
2019-06-08T15:39:21.643Z,30.73
2019-06-08T15:41:51.230Z,30.33
2019-06-08T15:44:22.654Z,30.06
2019-06-08T15:46:51.701Z,29.91
2019-06-08T15:49:22.170Z,29.99
2019-06-08T15:51:51.842Z,30.43
2019-06-08T15:54:22.559Z,30.91
2019-06-08T15:56:52.411Z,31.29
2019-06-08T15:59:23.148Z,31.42
2019-06-08T16:01:52.538Z,31.31
2019-06-08T16:04:23.336Z,31.62
2019-06-08T16:06:52.951Z,32.18
2019-06-08T16:09:23.883Z,32.44
2019-06-08T16:11:53.409Z,32.05
2019-06-08T16:14:22.780Z,31.68
2019-06-08T16:16:52.187Z,31.72
2019-06-08T16:19:21.626Z,31.30
2019-06-08T16:21:51.100Z,30.97
2019-06-08T16:24:20.488Z,30.55
2019-06-08T16:26:53.184Z,30.52
2019-06-08T16:29:21.058Z,30.68
2019-06-08T16:31:50.433Z,30.56
2019-06-08T16:34:19.825Z,30.42
2019-06-08T16:36:49.252Z,30.41
2019-06-08T16:39:18.648Z,30.25
2019-06-08T16:41:48.016Z,30.19
2019-06-08T16:44:17.469Z,30.38
2019-06-08T16:46:46.913Z,30.26
2019-06-08T16:49:16.345Z,30.26
2019-06-08T16:51:45.770Z,30.02
2019-06-08T16:54:15.169Z,29.70
2019-06-08T16:56:44.542Z,29.81
2019-06-08T16:59:13.933Z,29.78
2019-06-08T17:01:43.309Z,29.70
2019-06-08T17:04:12.713Z,29.97
2019-06-08T17:06:44.227Z,29.94
2019-06-08T17:09:13.999Z,29.72
2019-06-08T17:11:43.424Z,29.42
2019-06-08T17:14:12.863Z,29.22
2019-06-08T17:16:42.189Z,29.08
2019-06-08T17:19:11.672Z,28.99
2019-06-08T17:21:41.104Z,28.62
2019-06-08T17:24:10.458Z,28.41
2019-06-08T17:26:40.766Z,28.30
2019-06-08T17:29:10.543Z,28.29
2019-06-08T17:31:41.299Z,28.07
2019-06-08T17:34:10.830Z,27.93
2019-06-08T17:36:40.714Z,27.74
2019-06-08T17:39:10.199Z,27.52
2019-06-08T17:41:40.170Z,27.46
2019-06-08T17:44:09.674Z,27.35
2019-06-08T17:46:41.067Z,27.25
2019-06-08T17:49:10.234Z,27.28
2019-06-08T17:51:41.674Z,27.26
2019-06-08T17:54:10.898Z,27.18
2019-06-08T17:56:41.253Z,27.11
2019-06-08T17:59:10.782Z,26.98
2019-06-08T18:01:41.652Z,26.87
2019-06-08T18:04:11.180Z,26.76
2019-06-08T18:06:41.805Z,26.74
2019-06-08T18:09:11.645Z,26.67
2019-06-08T18:11:43.530Z,26.58
2019-06-08T18:14:13.513Z,26.48
2019-06-08T18:16:44.058Z,26.40
2019-06-08T18:19:28.476Z,26.32
2019-06-08T18:22:04.373Z,26.21
2019-06-08T18:24:29.367Z,26.14
2019-06-08T18:26:59.782Z,26.06
2019-06-08T18:29:29.234Z,26.01
2019-06-08T18:31:58.628Z,25.96
2019-06-08T18:34:28.737Z,25.96
2019-06-08T18:36:58.350Z,25.91
2019-06-08T18:39:30.477Z,25.88
2019-06-08T18:42:01.304Z,25.86
2019-06-08T18:44:30.982Z,25.83
2019-06-08T18:47:00.331Z,25.88
2019-06-08T18:49:29.713Z,25.84
2019-06-08T18:51:59.386Z,25.79
2019-06-08T18:54:28.900Z,25.78
2019-06-08T18:56:58.279Z,25.77
2019-06-08T18:59:28.675Z,25.67
2019-06-08T19:01:58.205Z,25.64
2019-06-08T19:04:30.943Z,25.56
2019-06-08T19:07:01.926Z,25.56
2019-06-08T19:09:32.475Z,25.51
2019-06-08T19:12:02.043Z,25.41
2019-06-08T19:14:31.454Z,25.41
2019-06-08T19:17:00.900Z,25.34
2019-06-08T19:19:31.485Z,25.25
2019-06-08T19:22:01.168Z,25.25
2019-06-08T19:24:30.555Z,25.25
2019-06-08T19:27:00.028Z,25.18
2019-06-08T19:29:29.494Z,25.13
2019-06-08T19:32:00.482Z,25.09
2019-06-08T19:34:33.182Z,25.13
2019-06-08T19:37:01.151Z,25.14
2019-06-08T19:39:32.006Z,25.13
2019-06-08T19:42:01.380Z,25.16
2019-06-08T19:44:30.922Z,25.19
2019-06-08T19:47:00.308Z,25.13
2019-06-08T19:49:30.044Z,25.12
2019-06-08T19:51:59.692Z,25.15
2019-06-08T19:54:29.073Z,25.13
2019-06-08T19:57:00.678Z,25.07
2019-06-08T19:59:30.035Z,25.04
2019-06-08T20:01:59.998Z,25.03
2019-06-08T20:04:29.578Z,24.99
2019-06-08T20:07:00.704Z,24.92
2019-06-08T20:09:30.239Z,24.87
2019-06-08T20:12:00.307Z,24.83
2019-06-08T20:14:29.840Z,24.77
2019-06-08T20:16:59.240Z,24.76
2019-06-08T20:19:29.220Z,24.69
2019-06-08T20:21:58.618Z,24.63
2019-06-08T20:24:28.284Z,24.59
2019-06-08T20:26:57.777Z,24.56
2019-06-08T20:29:28.220Z,24.48
2019-06-08T20:31:58.522Z,24.46
2019-06-08T20:34:28.166Z,24.44
2019-06-08T20:37:01.442Z,24.40
2019-06-08T20:39:29.657Z,24.38
2019-06-08T20:41:59.059Z,24.29
2019-06-08T20:44:30.310Z,24.39
2019-06-08T20:46:59.931Z,24.40
2019-06-08T20:49:29.415Z,24.32
2019-06-08T20:52:00.448Z,24.36
2019-06-08T20:54:30.042Z,24.39
2019-06-08T20:56:59.651Z,24.37
2019-06-08T20:59:33.199Z,24.31
2019-06-08T21:02:00.173Z,24.22
2019-06-08T21:04:29.580Z,24.19
2019-06-08T21:06:59.005Z,24.08
2019-06-08T21:09:28.420Z,24.02
2019-06-08T21:11:58.813Z,23.94
2019-06-08T21:14:28.483Z,23.85
2019-06-08T21:16:58.584Z,23.78
2019-06-08T21:19:28.408Z,23.76
2019-06-08T21:21:59.203Z,23.76
2019-06-08T21:24:28.953Z,23.68
2019-06-08T21:27:00.606Z,23.61
2019-06-08T21:29:46.914Z,23.60
2019-06-08T21:32:02.687Z,23.59
2019-06-08T21:34:31.673Z,23.52
2019-06-08T21:37:01.198Z,23.47
2019-06-08T21:39:30.587Z,23.45
2019-06-08T21:42:03.053Z,23.43
2019-06-08T21:44:31.088Z,23.39
2019-06-08T21:47:01.595Z,23.36
2019-06-08T21:49:31.174Z,23.35
2019-06-08T21:52:01.274Z,23.24
2019-06-08T21:54:30.977Z,23.23
2019-06-08T21:57:01.147Z,23.20
2019-06-08T21:59:30.630Z,23.16
2019-06-08T22:02:03.129Z,22.97
2019-06-08T22:04:31.170Z,23.23
2019-06-08T22:07:01.621Z,23.08
2019-06-08T22:09:31.747Z,23.15
2019-06-08T22:12:01.165Z,23.09
2019-06-08T22:14:30.573Z,23.06
2019-06-08T22:17:01.445Z,22.97
2019-06-08T22:19:31.071Z,22.98
2019-06-08T22:22:02.013Z,22.92
2019-06-08T22:24:31.672Z,22.90
2019-06-08T22:27:01.945Z,22.89
2019-06-08T22:29:31.410Z,22.89
2019-06-08T22:32:00.851Z,22.84
2019-06-08T22:34:30.267Z,22.78
2019-06-08T22:37:00.444Z,22.71
2019-06-08T22:39:30.006Z,22.70
2019-06-08T22:42:01.232Z,22.62
2019-06-08T22:44:30.525Z,22.60
2019-06-08T22:47:01.582Z,22.57
2019-06-08T22:49:31.109Z,22.48
2019-06-08T22:52:01.354Z,22.45
2019-06-08T22:54:31.594Z,22.47
2019-06-08T22:57:02.999Z,22.43
2019-06-08T22:59:32.118Z,22.35
2019-06-08T23:02:04.087Z,22.36
2019-06-08T23:04:32.631Z,22.37
2019-06-08T23:07:04.534Z,22.32
2019-06-08T23:09:33.088Z,22.34
2019-06-08T23:12:04.653Z,22.35
2019-06-08T23:14:33.577Z,22.29
2019-06-08T23:17:03.997Z,22.30
2019-06-08T23:19:34.086Z,22.24
2019-06-08T23:22:04.033Z,22.23
2019-06-08T23:24:33.544Z,22.18
2019-06-08T23:27:04.164Z,22.24
2019-06-08T23:32:04.376Z,22.18
2019-06-08T23:34:33.115Z,22.19
2019-06-08T23:37:05.684Z,22.23
2019-06-08T23:39:33.661Z,22.13
2019-06-08T23:42:03.732Z,22.12
2019-06-08T23:44:33.212Z,22.07
2019-06-08T23:47:03.207Z,22.08
2019-06-08T23:49:33.833Z,22.10
2019-06-08T23:52:04.331Z,22.09
2019-06-08T23:54:37.055Z,22.06
2019-06-08T23:57:09.194Z,22.04
2019-06-08T23:59:37.736Z,22.05
